• Join FlightAware (Why Join?)
  • Login
  • US Flag 
03:36AM EDT


 

Airport Tracker/Info


-or-


 

Live Flight TrackerFlight Track Log ✈ CTL14 ✈ 19-Apr-2013 ✈ KBMI - KPWK

Flight Track Log - Related Links

Times and Time Zones

All times are in EDT time to prevent confusion due to time zone crossing. See the CTL14 flight status page for this flight to view local times or setup timezone preferences in your user account.

Time Position Orientation Groundspeed Altitude Reporting Facility
EDT Latitude Longitude Course Direction KTS MPH feet Rate Location/Type
11:30PM 40.5206 -88.9194 18° North 119 137 2,600  Level Chicago Center
11:31PM 40.5475 -88.9078 18° North 104 120 3,600 900 Climbing Chicago Center
11:32PM 40.5756 -88.8983 14° North 104 120 4,500 780 Climbing Chicago Center
11:33PM 40.6072 -88.8914 North 111 128 5,200 720 Climbing Chicago Center
11:34PM 40.6417 -88.8781 16° North 124 143 6,000 660 Climbing Chicago Center
11:35PM 40.6756 -88.8678 13° North 126 145 6,600 540 Climbing Chicago Center
11:36PM 40.7089 -88.8567 14° North 125 144 7,200 300 Climbing Chicago Center
11:37PM 40.7461 -88.8467 12° North 130 150 7,300  Climbing Chicago Center
11:38PM 40.7889 -88.8372 North 147 169 7,300 -60 Level Chicago Center
11:39PM 40.8322 -88.8250 12° North 157 181 7,200  Descending Chicago Center
11:40PM 40.8739 -88.8136 12° North 156 180 7,300  Climbing Chicago Center
11:41PM 40.9247 -88.8003 11° North 156 180 7,300 -60 Level Chicago Center
11:42PM 40.9672 -88.7881 12° North 157 181 7,200 -360 Descending Chicago Center
11:43PM 41.0128 -88.7728 14° North 165 190 6,600 -480 Descending Chicago Center
11:44PM 41.0592 -88.7586 13° North 170 196 6,300 -240 Descending Chicago Center
11:45PM 41.1031 -88.7475 11° North 165 190 6,200 -60 Descending Chicago Center
11:46PM 41.1444 -88.7364 11° North 157 181 6,200  Level Chicago Center
11:47PM 41.1869 -88.7256 11° North 156 180 6,200  Level Chicago Center
11:48PM 41.2292 -88.7144 11° North 155 178 6,200 -120 Level Chicago Center
11:49PM 41.2714 -88.7019 13° North 157 181 6,000 -120 Descending Chicago Center
11:50PM 41.3142 -88.6911 11° North 157 181 6,000  Level Chicago Center
11:51PM 41.3561 -88.6803 11° North 156 180 6,000  Level Chicago Center
11:52PM 41.4067 -88.6658 12° North 155 178 6,000 -60 Level Chicago Center
11:53PM 41.4481 -88.6558 10° North 153 176 5,900 -60 Descending Chicago Center
11:54PM 41.4897 -88.6444 12° North 153 176 5,900 60 Level Chicago Center
11:55PM 41.5314 -88.6344 10° North 153 176 6,100 60 Climbing Chicago Center
11:56PM 41.5719 -88.6225 12° North 151 174 6,100  Level Chicago Center
11:57PM 41.6117 -88.5933 29° Northeast 157 181 6,100  Level Chicago Center
11:59PM 41.6514 -88.5675 26° Northeast 158 182 6,100 -300 Level Chicago Center
12:00AM 41.6925 -88.5389 27° Northeast 162 186 5,500 -600 Descending Chicago Center
12:01AM 41.7358 -88.5094 27° Northeast 168 193 5,000 -600 Descending Chicago Center
12:02AM 41.7797 -88.4794 27° Northeast 173 199 4,400 -480 Descending Chicago Center
12:03AM 41.8244 -88.4511 25° Northeast 175 201 4,100 -180 Descending Chicago Center
12:04AM 41.8656 -88.4208 29° Northeast 174 200 4,100  Level Chicago Center
12:05AM 41.9064 -88.3944 26° Northeast 169 194 4,200  Climbing Chicago Center
12:06AM 41.9478 -88.3669 26° Northeast 167 192 4,100 -120 Descending Chicago Center
12:07AM 41.9978 -88.3319 27° Northeast 168 193 4,000 -360 Descending Chicago Center
12:08AM 42.0386 -88.3008 30° Northeast 168 193 3,400 -480 Descending Chicago Center
12:09AM 42.0747 -88.2425 50° Northeast 189 217 3,100 -300 Descending Chicago Center
12:10AM 42.1069 -88.1950 48° Northeast 190 219 2,900 -240 Descending Chicago Center